createdAt,value
2019-04-06T00:01:53.777Z,7.16
2019-04-06T00:04:21.167Z,7.22
2019-04-06T00:06:48.559Z,7.17
2019-04-06T00:09:15.963Z,7.15
2019-04-06T00:11:43.357Z,7.18
2019-04-06T00:14:10.769Z,7.17
2019-04-06T00:16:38.162Z,7.15
2019-04-06T00:19:05.561Z,7.15
2019-04-06T00:21:32.973Z,7.15
2019-04-06T00:26:34.193Z,6.97
2019-04-06T00:29:01.604Z,6.98
2019-04-06T00:31:34.741Z,6.96
2019-04-06T00:34:02.150Z,6.92
2019-04-06T00:36:29.575Z,6.98
2019-04-06T00:38:56.962Z,7.01
2019-04-06T00:41:24.367Z,6.97
2019-04-06T00:43:51.776Z,6.89
2019-04-06T00:46:19.311Z,6.85
2019-04-06T00:48:46.712Z,6.87
2019-04-06T00:51:14.232Z,6.91
2019-04-06T00:53:41.568Z,6.95
2019-04-06T00:56:08.972Z,6.88
2019-04-06T00:58:37.486Z,6.81
2019-04-06T01:01:04.921Z,6.80
2019-04-06T01:03:32.411Z,6.83
2019-04-06T01:05:59.806Z,6.90
2019-04-06T01:08:28.026Z,6.99
2019-04-06T01:10:55.439Z,6.93
2019-04-06T01:13:22.843Z,6.91
2019-04-06T01:15:50.234Z,6.91
2019-04-06T01:18:17.632Z,6.93
2019-04-06T01:20:45.045Z,6.87
2019-04-06T01:23:12.451Z,6.94
2019-04-06T01:25:39.872Z,6.95
2019-04-06T01:28:07.293Z,6.94
2019-04-06T01:30:35.455Z,6.96
2019-04-06T01:33:02.839Z,6.94
2019-04-06T01:35:30.656Z,6.97
2019-04-06T01:37:58.065Z,7.02
2019-04-06T01:40:25.511Z,7.05
2019-04-06T01:42:52.956Z,7.00
2019-04-06T01:45:20.348Z,6.96
2019-04-06T01:47:47.869Z,6.96
2019-04-06T01:50:15.260Z,6.94
2019-04-06T01:52:42.655Z,6.93
2019-04-06T01:55:10.053Z,6.96
2019-04-06T01:57:37.499Z,6.97
2019-04-06T02:00:06.406Z,6.93
2019-04-06T02:02:33.809Z,6.84
2019-04-06T02:05:01.214Z,6.84
2019-04-06T02:07:28.648Z,6.83
2019-04-06T02:09:56.048Z,6.68
2019-04-06T02:12:23.447Z,6.62
2019-04-06T02:14:50.845Z,6.58
2019-04-06T02:17:18.274Z,6.60
2019-04-06T02:19:45.691Z,6.58
2019-04-06T02:22:13.078Z,6.52
2019-04-06T02:24:40.486Z,6.57
2019-04-06T02:27:07.903Z,6.55
2019-04-06T02:29:35.305Z,6.43
2019-04-06T02:32:08.226Z,6.27
2019-04-06T02:34:55.234Z,6.26
2019-04-06T02:37:28.235Z,6.34
2019-04-06T02:39:58.474Z,6.37
2019-04-06T02:42:26.435Z,6.45
2019-04-06T02:44:53.789Z,6.52
2019-04-06T02:47:21.183Z,6.56
2019-04-06T02:49:48.588Z,6.57
2019-04-06T02:52:15.992Z,6.56
2019-04-06T02:54:43.423Z,6.58
2019-04-06T02:57:10.850Z,6.60
2019-04-06T02:59:39.089Z,6.59
2019-04-06T03:02:06.488Z,6.60
2019-04-06T03:04:33.901Z,6.62
2019-04-06T03:07:01.303Z,6.54
2019-04-06T03:09:28.707Z,6.46
2019-04-06T03:11:56.209Z,6.42
2019-04-06T03:14:23.519Z,6.44
2019-04-06T03:16:50.912Z,6.50
2019-04-06T03:19:18.985Z,6.52
2019-04-06T03:21:46.389Z,6.52
2019-04-06T03:24:13.804Z,6.46
2019-04-06T03:26:41.213Z,6.42
2019-04-06T03:29:08.607Z,6.48
2019-04-06T03:31:36.014Z,6.45
2019-04-06T03:34:04.165Z,6.47
2019-04-06T03:36:31.419Z,6.43
2019-04-06T03:38:59.095Z,6.45
2019-04-06T03:41:26.344Z,6.43
2019-04-06T03:43:53.752Z,6.41
2019-04-06T03:46:21.147Z,6.34
2019-04-06T03:48:48.788Z,6.34
2019-04-06T03:51:16.014Z,6.37
2019-04-06T03:53:43.435Z,6.44
2019-04-06T03:56:10.817Z,6.43
2019-04-06T03:58:38.237Z,6.37
2019-04-06T04:01:05.761Z,6.40
2019-04-06T04:03:33.171Z,6.40
2019-04-06T04:06:00.569Z,6.35
2019-04-06T04:08:27.984Z,6.41
2019-04-06T04:10:56.097Z,6.50
2019-04-06T04:13:23.677Z,6.50
2019-04-06T04:15:51.113Z,6.52
2019-04-06T04:18:18.537Z,6.59
2019-04-06T04:20:46.172Z,6.63
2019-04-06T04:23:13.418Z,6.69
2019-04-06T04:25:40.972Z,6.60
2019-04-06T04:28:08.396Z,6.49
2019-04-06T04:30:35.713Z,6.50
2019-04-06T04:33:03.113Z,6.54
2019-04-06T04:35:30.509Z,6.50
2019-04-06T04:37:58.243Z,6.50
2019-04-06T04:40:25.660Z,6.51
2019-04-06T04:42:52.891Z,6.53
2019-04-06T04:45:20.319Z,6.53
2019-04-06T04:47:50.030Z,6.51
2019-04-06T04:50:15.357Z,6.56
2019-04-06T04:52:43.009Z,6.57
2019-04-06T04:55:10.234Z,6.59
2019-04-06T04:57:41.139Z,6.53
2019-04-06T05:00:05.140Z,6.58
2019-04-06T05:02:32.541Z,6.63
2019-04-06T05:04:59.958Z,6.65
2019-04-06T05:07:27.363Z,6.64
2019-04-06T05:09:54.803Z,6.63
2019-04-06T05:12:22.300Z,6.62
2019-04-06T05:14:56.176Z,6.66
2019-04-06T05:17:23.566Z,6.62
2019-04-06T05:19:50.989Z,6.64
2019-04-06T05:22:18.393Z,6.69
2019-04-06T05:24:45.808Z,6.69
2019-04-06T05:27:13.272Z,6.60
2019-04-06T05:29:40.693Z,6.41
2019-04-06T05:32:08.289Z,6.34
2019-04-06T05:34:35.533Z,6.32
2019-04-06T05:37:02.966Z,6.41
2019-04-06T05:39:30.359Z,6.57
2019-04-06T05:41:57.785Z,6.73
2019-04-06T05:44:25.173Z,6.73
2019-04-06T05:46:52.584Z,6.64
2019-04-06T05:49:19.988Z,6.66
2019-04-06T05:51:47.395Z,6.73
2019-04-06T05:54:14.789Z,6.63
2019-04-06T05:56:42.178Z,6.50
2019-04-06T05:59:10.247Z,6.60
2019-04-06T06:01:40.337Z,6.70
2019-04-06T06:04:04.451Z,6.70
2019-04-06T06:06:31.859Z,6.77
2019-04-06T06:08:59.287Z,6.90
2019-04-06T06:11:26.695Z,6.85
2019-04-06T06:13:54.119Z,6.77
2019-04-06T06:16:21.535Z,6.83
2019-04-06T06:18:48.939Z,7.00
2019-04-06T06:21:16.333Z,7.23
2019-04-06T06:23:43.735Z,7.39
2019-04-06T06:26:11.258Z,7.62
2019-04-06T06:28:38.567Z,7.77
2019-04-06T06:31:05.976Z,8.13
2019-04-06T06:33:33.383Z,8.47
2019-04-06T06:36:00.980Z,8.49
2019-04-06T06:38:28.383Z,8.57
2019-04-06T06:40:55.836Z,8.76
2019-04-06T06:43:23.394Z,8.49
2019-04-06T06:45:50.700Z,8.41
2019-04-06T06:48:18.103Z,8.74
2019-04-06T06:50:45.514Z,9.13
2019-04-06T06:53:12.934Z,9.40
2019-04-06T06:55:40.328Z,9.63
2019-04-06T06:58:07.775Z,9.52
2019-04-06T07:00:35.182Z,9.52
2019-04-06T07:03:02.601Z,9.51
2019-04-06T07:05:30.003Z,9.47
2019-04-06T07:07:57.402Z,9.46
2019-04-06T07:10:24.846Z,9.37
2019-04-06T07:12:52.223Z,9.34
2019-04-06T07:15:19.674Z,9.24
2019-04-06T07:17:47.137Z,9.19
2019-04-06T07:20:14.064Z,9.41
2019-04-06T07:22:41.478Z,9.61
2019-04-06T07:25:08.881Z,9.50
2019-04-06T07:27:36.288Z,9.36
2019-04-06T07:30:04.404Z,9.44
2019-04-06T07:32:31.812Z,9.55
2019-04-06T07:34:59.334Z,9.85
2019-04-06T07:37:26.614Z,9.88
2019-04-06T07:39:54.026Z,9.92
2019-04-06T07:42:21.488Z,9.71
2019-04-06T07:44:48.890Z,9.76
2019-04-06T07:47:16.278Z,9.93
2019-04-06T07:49:46.168Z,10.03
2019-04-06T07:52:11.428Z,9.89
2019-04-06T07:54:38.579Z,9.67
2019-04-06T07:57:05.986Z,9.40
2019-04-06T07:59:33.512Z,9.45
2019-04-06T08:02:00.915Z,9.81
2019-04-06T08:04:28.330Z,9.87
2019-04-06T08:06:55.806Z,9.92
2019-04-06T08:09:23.159Z,9.95
2019-04-06T08:11:50.582Z,9.88
2019-04-06T08:14:18.298Z,9.80
2019-04-06T08:16:45.470Z,9.63
2019-04-06T08:19:13.068Z,9.59
2019-04-06T08:21:40.415Z,9.62
2019-04-06T08:24:07.933Z,9.61
2019-04-06T08:26:35.320Z,9.65
2019-04-06T08:29:02.871Z,9.73
2019-04-06T08:31:30.168Z,9.94
2019-04-06T08:33:57.579Z,10.12
2019-04-06T08:36:24.998Z,10.43
2019-04-06T08:38:52.419Z,10.20
2019-04-06T08:41:19.816Z,9.82
2019-04-06T08:43:47.260Z,9.61
2019-04-06T08:46:14.663Z,9.35
2019-04-06T08:48:42.073Z,9.11
2019-04-06T08:51:09.557Z,9.01
2019-04-06T08:53:36.983Z,9.08
2019-04-06T08:56:04.458Z,9.09
2019-04-06T08:58:31.863Z,8.99
2019-04-06T09:00:59.662Z,8.91
2019-04-06T09:03:27.072Z,8.96
2019-04-06T09:05:55.107Z,9.14
2019-04-06T09:08:22.507Z,9.50
2019-04-06T09:10:49.926Z,9.84
2019-04-06T09:13:18.200Z,10.13
2019-04-06T09:15:45.759Z,10.28
2019-04-06T09:18:13.424Z,10.55
2019-04-06T09:20:40.819Z,10.82
2019-04-06T09:23:08.275Z,10.79
2019-04-06T09:25:35.874Z,10.87
2019-04-06T09:28:03.366Z,10.97
2019-04-06T09:30:30.699Z,11.16
2019-04-06T09:32:58.355Z,11.38
2019-04-06T09:35:25.536Z,11.34
2019-04-06T09:37:52.943Z,11.35
2019-04-06T09:40:20.369Z,11.46
2019-04-06T09:42:47.755Z,11.61
2019-04-06T09:48:11.737Z,11.64
2019-04-06T09:54:05.160Z,12.54
2019-04-06T09:56:27.536Z,12.83
2019-04-06T09:59:01.562Z,13.04
2019-04-06T10:04:22.015Z,13.17
2019-04-06T10:06:55.152Z,13.28
2019-04-06T10:09:23.570Z,12.93
2019-04-06T10:11:54.959Z,12.65
2019-04-06T10:14:24.882Z,12.45
2019-04-06T10:16:54.996Z,12.57
2019-04-06T10:19:32.665Z,12.62
2019-04-06T10:25:14.834Z,12.63
2019-04-06T10:27:42.264Z,12.66
2019-04-06T10:30:25.779Z,12.85
2019-04-06T10:32:54.407Z,13.21
2019-04-06T10:35:21.863Z,13.00
2019-04-06T10:38:04.321Z,13.11
2019-04-06T10:40:38.323Z,13.25
2019-04-06T10:43:11.071Z,13.28
2019-04-06T10:45:38.487Z,13.78
2019-04-06T10:48:08.843Z,13.98
2019-04-06T10:53:35.696Z,14.31
2019-04-06T10:56:07.615Z,14.43
2019-04-06T10:58:52.781Z,14.47
2019-04-06T11:01:24.538Z,14.72
2019-04-06T11:03:51.933Z,15.01
2019-04-06T11:06:20.844Z,14.89
2019-04-06T11:08:52.176Z,14.72
2019-04-06T11:11:25.226Z,15.50
2019-04-06T11:16:50.437Z,16.95
2019-04-06T11:19:33.442Z,17.51
2019-04-06T11:22:00.855Z,17.83
2019-04-06T11:24:28.285Z,17.82
2019-04-06T11:27:01.228Z,17.91
2019-04-06T11:29:30.016Z,17.64
2019-04-06T11:34:54.420Z,18.20
2019-04-06T11:37:22.174Z,18.14
2019-04-06T11:40:05.454Z,17.85
2019-04-06T11:42:38.528Z,17.62
2019-04-06T11:45:06.799Z,17.09
2019-04-06T11:47:37.092Z,16.66
2019-04-06T11:50:04.514Z,16.64
2019-04-06T11:52:37.409Z,16.17
2019-04-06T11:55:09.339Z,15.83
2019-04-06T11:57:39.743Z,15.68
2019-04-06T12:03:01.661Z,16.01
2019-04-06T12:05:43.959Z,16.15
2019-04-06T12:08:17.150Z,17.15
2019-04-06T12:10:46.514Z,17.32
2019-04-06T12:13:24.637Z,17.15
2019-04-06T12:18:53.863Z,18.51
2019-04-06T12:21:24.103Z,18.52
2019-04-06T12:24:05.506Z,17.92
2019-04-06T12:26:35.117Z,17.02
2019-04-06T12:29:07.997Z,16.93
2019-04-06T12:31:40.044Z,17.20
2019-04-06T12:34:08.263Z,17.43
2019-04-06T12:36:39.419Z,17.57
2019-04-06T12:39:09.792Z,17.74
2019-04-06T12:41:42.697Z,17.37
2019-04-06T12:44:26.882Z,17.13
2019-04-06T12:47:15.095Z,17.09
2019-04-06T12:52:56.452Z,17.65
2019-04-06T12:58:29.157Z,17.36
2019-04-06T13:01:00.067Z,16.84
2019-04-06T13:03:31.337Z,16.52
2019-04-06T13:06:01.596Z,16.47
2019-04-06T13:08:29.319Z,16.77
2019-04-06T13:11:02.437Z,17.15
2019-04-06T13:13:29.838Z,17.74
2019-04-06T13:16:02.757Z,17.92
2019-04-06T13:18:34.480Z,17.97
2019-04-06T13:21:02.258Z,17.75
2019-04-06T13:23:41.323Z,17.78
2019-04-06T13:29:04.661Z,18.71
2019-04-06T13:31:33.681Z,19.07
2019-04-06T13:34:06.638Z,19.78
2019-04-06T13:36:39.654Z,20.28
2019-04-06T13:39:13.724Z,20.44
2019-04-06T13:41:42.703Z,20.08
2019-04-06T13:44:12.560Z,19.77
2019-04-06T13:46:45.419Z,19.65
2019-04-06T13:49:18.368Z,20.39
2019-04-06T13:51:46.197Z,20.94
2019-04-06T13:54:13.371Z,21.27
2019-04-06T13:56:45.093Z,21.39
2019-04-06T13:59:23.323Z,20.74
2019-04-06T14:02:00.682Z,20.40
2019-04-06T14:04:29.943Z,20.96
2019-04-06T14:09:55.675Z,22.44
2019-04-06T14:12:43.807Z,22.68
2019-04-06T14:15:16.932Z,22.30
2019-04-06T14:17:49.947Z,22.21
2019-04-06T14:20:20.410Z,22.24
2019-04-06T14:25:45.753Z,22.75
2019-04-06T14:28:14.206Z,22.03
2019-04-06T14:30:56.572Z,21.38
2019-04-06T14:36:18.932Z,22.12
2019-04-06T14:38:56.641Z,22.48
2019-04-06T14:41:24.445Z,22.74
2019-04-06T14:44:09.243Z,22.88
2019-04-06T14:46:41.030Z,23.03
2019-04-06T14:49:27.183Z,22.97
2019-04-06T14:51:44.563Z,22.43
2019-04-06T14:54:12.470Z,22.02
2019-04-06T14:56:40.506Z,21.53
2019-04-06T15:02:16.895Z,21.28
2019-04-06T15:05:01.271Z,21.27
2019-04-06T15:07:28.455Z,21.69
2019-04-06T15:10:12.644Z,21.97
2019-04-06T15:12:39.998Z,22.16
2019-04-06T15:18:02.974Z,23.16
2019-04-06T15:23:36.731Z,22.74
2019-04-06T15:26:04.288Z,22.69
2019-04-06T15:31:48.620Z,22.51
2019-04-06T15:34:14.303Z,22.09
2019-04-06T15:36:57.775Z,21.36
2019-04-06T15:39:30.519Z,21.13
2019-04-06T15:41:58.393Z,20.55
2019-04-06T15:44:27.610Z,20.26
2019-04-06T15:49:55.784Z,20.21
2019-04-06T15:52:28.557Z,20.10
2019-04-06T15:54:56.775Z,19.86
2019-04-06T15:57:28.159Z,19.71
2019-04-06T16:00:14.496Z,19.59
2019-04-06T16:02:47.490Z,19.39
2019-04-06T16:05:15.850Z,19.04
2019-04-06T16:10:35.847Z,19.11
2019-04-06T16:13:04.227Z,18.97
2019-04-06T16:15:37.421Z,18.58
2019-04-06T16:18:05.163Z,18.39
2019-04-06T16:20:34.096Z,18.17
2019-04-06T16:23:05.298Z,18.01
2019-04-06T16:25:32.705Z,17.91
2019-04-06T16:28:05.774Z,17.76
2019-04-06T16:30:34.869Z,17.78
2019-04-06T16:33:05.402Z,17.69
2019-04-06T16:35:33.099Z,17.50
2019-04-06T16:40:55.090Z,17.64
2019-04-06T16:46:36.333Z,17.41
2019-04-06T16:49:05.650Z,17.07
2019-04-06T16:51:35.472Z,16.93
2019-04-06T16:54:07.439Z,16.83
2019-04-06T16:56:36.643Z,16.77
2019-04-06T16:59:09.870Z,16.67
2019-04-06T17:01:52.269Z,16.56
2019-04-06T17:04:34.352Z,16.47
2019-04-06T17:07:03.210Z,16.44
2019-04-06T17:09:34.803Z,16.41
2019-04-06T17:12:07.462Z,16.42
2019-04-06T17:17:46.929Z,16.57
2019-04-06T17:23:18.127Z,16.55
2019-04-06T17:25:51.162Z,16.42
2019-04-06T17:28:18.573Z,16.28
2019-04-06T17:30:47.902Z,16.16
2019-04-06T17:33:21.170Z,16.14
2019-04-06T17:35:48.610Z,16.07
2019-04-06T17:38:16.132Z,15.95
2019-04-06T17:40:43.550Z,15.91
2019-04-06T17:43:17.044Z,15.86
2019-04-06T17:45:47.175Z,15.79
2019-04-06T17:48:16.863Z,15.56
2019-04-06T17:50:43.897Z,15.43
2019-04-06T17:56:04.567Z,15.37
2019-04-06T18:01:42.681Z,15.28
2019-04-06T18:04:13.782Z,14.99
2019-04-06T18:06:52.972Z,14.86
2019-04-06T18:09:20.304Z,14.76
2019-04-06T18:14:40.627Z,14.84
2019-04-06T18:17:08.064Z,14.68
2019-04-06T18:19:36.016Z,14.52
2019-04-06T18:22:02.972Z,14.40
2019-04-06T18:24:30.655Z,14.37
2019-04-06T18:26:57.824Z,14.39
2019-04-06T18:29:25.397Z,14.40
2019-04-06T18:31:55.187Z,14.39
2019-04-06T18:34:22.865Z,14.38
2019-04-06T18:36:52.923Z,14.34
2019-04-06T18:39:20.431Z,14.25
2019-04-06T18:41:47.836Z,14.19
2019-04-06T18:44:15.324Z,14.14
2019-04-06T18:46:42.782Z,14.12
2019-04-06T18:49:10.171Z,14.10
2019-04-06T18:51:37.575Z,14.06
2019-04-06T18:54:05.295Z,13.99
2019-04-06T18:56:32.428Z,13.96
2019-04-06T18:58:59.902Z,13.88
2019-04-06T19:01:27.331Z,13.84
2019-04-06T19:03:55.552Z,13.81
2019-04-06T19:06:22.147Z,13.72
2019-04-06T19:08:49.561Z,13.70
2019-04-06T19:11:17.375Z,13.64
2019-04-06T19:13:44.485Z,13.63
2019-04-06T19:16:12.951Z,13.58
2019-04-06T19:18:40.379Z,13.57
2019-04-06T19:21:07.785Z,13.60
2019-04-06T19:23:35.191Z,13.59
2019-04-06T19:26:02.623Z,13.50
2019-04-06T19:28:30.057Z,13.49
2019-04-06T19:30:57.636Z,13.41
2019-04-06T19:33:25.908Z,13.41
2019-04-06T19:35:52.858Z,13.33
2019-04-06T19:38:19.900Z,13.29
2019-04-06T19:40:47.730Z,13.29
2019-04-06T19:43:17.248Z,13.27
2019-04-06T19:45:42.202Z,13.23
2019-04-06T19:48:09.686Z,13.19
2019-04-06T19:50:37.118Z,13.12
2019-04-06T19:53:04.524Z,13.13
2019-04-06T19:55:32.000Z,13.09
2019-04-06T19:57:59.793Z,12.97
2019-04-06T20:00:27.236Z,12.92
2019-04-06T20:02:54.363Z,12.87
2019-04-06T20:05:21.750Z,12.83
2019-04-06T20:07:49.186Z,12.79
2019-04-06T20:10:16.749Z,12.80
2019-04-06T20:12:44.040Z,12.76
2019-04-06T20:15:11.482Z,12.69
2019-04-06T20:17:39.072Z,12.64
2019-04-06T20:20:06.529Z,12.64
2019-04-06T20:22:34.122Z,12.67
2019-04-06T20:25:01.638Z,12.66
2019-04-06T20:27:29.058Z,12.73
2019-04-06T20:29:56.298Z,12.66
2019-04-06T20:32:23.406Z,12.59
2019-04-06T20:34:49.834Z,12.59
2019-04-06T20:37:17.074Z,12.50
2019-04-06T20:39:44.610Z,12.43
2019-04-06T20:42:11.657Z,12.34
2019-04-06T20:44:39.282Z,12.22
2019-04-06T20:47:06.855Z,12.19
2019-04-06T20:49:34.010Z,12.28
2019-04-06T20:52:01.883Z,12.19
2019-04-06T20:54:28.931Z,12.14
2019-04-06T20:56:58.266Z,12.12
2019-04-06T20:59:24.122Z,12.05
2019-04-06T21:01:51.393Z,12.13
2019-04-06T21:04:18.962Z,12.06
2019-04-06T21:06:46.401Z,12.09
2019-04-06T21:09:14.126Z,12.13
2019-04-06T21:11:41.434Z,12.11
2019-04-06T21:14:08.967Z,12.29
2019-04-06T21:16:36.226Z,12.32
2019-04-06T21:19:03.742Z,12.36
2019-04-06T21:21:31.509Z,12.39
2019-04-06T21:23:58.483Z,12.31
2019-04-06T21:26:26.287Z,12.44
2019-04-06T21:28:53.407Z,12.50
2019-04-06T21:31:20.887Z,12.37
2019-04-06T21:33:48.455Z,12.26
2019-04-06T21:36:16.268Z,12.11
2019-04-06T21:38:43.344Z,11.99
2019-04-06T21:41:11.342Z,11.93
2019-04-06T21:43:38.173Z,11.86
2019-04-06T21:46:05.648Z,11.88
2019-04-06T21:48:33.404Z,11.90
2019-04-06T21:51:00.404Z,12.20
2019-04-06T21:53:27.926Z,12.25
2019-04-06T21:56:02.669Z,12.34
2019-04-06T21:58:23.241Z,12.32
2019-04-06T22:00:50.210Z,12.21
2019-04-06T22:03:17.893Z,11.98
2019-04-06T22:05:45.487Z,11.90
2019-04-06T22:08:13.093Z,12.03
2019-04-06T22:10:40.063Z,12.04
2019-04-06T22:13:08.268Z,11.98
2019-04-06T22:15:35.126Z,12.23
2019-04-06T22:18:02.694Z,12.31
2019-04-06T22:20:30.078Z,12.42
2019-04-06T22:22:57.552Z,12.44
2019-04-06T22:25:25.241Z,12.53
2019-04-06T22:27:52.961Z,12.59
2019-04-06T22:30:19.987Z,12.45
2019-04-06T22:32:48.129Z,12.39
2019-04-06T22:35:14.897Z,12.70
2019-04-06T22:37:42.442Z,12.53
2019-04-06T22:40:09.798Z,12.29
2019-04-06T22:42:37.195Z,12.35
2019-04-06T22:45:05.443Z,12.20
2019-04-06T22:47:32.854Z,12.10
2019-04-06T22:50:02.713Z,12.13
2019-04-06T22:52:30.493Z,11.96
2019-04-06T22:54:57.359Z,11.83
2019-04-06T22:57:25.075Z,11.84
2019-04-06T22:59:52.252Z,11.96
2019-04-06T23:02:20.342Z,12.23
2019-04-06T23:04:51.215Z,12.27
2019-04-06T23:07:16.683Z,12.15
2019-04-06T23:09:43.980Z,12.10
2019-04-06T23:12:11.877Z,12.07
2019-04-06T23:14:39.316Z,12.11
2019-04-06T23:17:06.393Z,12.19
2019-04-06T23:19:33.871Z,12.42
2019-04-06T23:22:01.421Z,12.25
2019-04-06T23:24:29.794Z,12.10
2019-04-06T23:26:57.794Z,12.09
2019-04-06T23:29:24.610Z,12.23
2019-04-06T23:31:52.128Z,12.37
2019-04-06T23:34:19.413Z,12.39
2019-04-06T23:36:47.352Z,12.24
2019-04-06T23:39:14.273Z,12.49
2019-04-06T23:41:42.749Z,12.35
2019-04-06T23:44:09.869Z,12.37
2019-04-06T23:46:37.266Z,12.24
2019-04-06T23:49:04.671Z,12.13
2019-04-06T23:51:32.106Z,12.07
2019-04-06T23:53:59.661Z,12.10
2019-04-06T23:56:27.093Z,12.14
2019-04-06T23:58:54.595Z,11.92
